Time;durP1;ratioP1;P1;durP2;ratioP2;P2;SDS_P1;SDS_P2;PMS_P1;PMS_P2;Temp;Humidity;BMP_temperature;BMP_pressure;BME280_temperature;BME280_humidity;BME280_pressure;Samples;Min_cycle;Max_cycle;Signal;HPM_P1;HPM_P2
2023/03/23 00:02:38;;;;;;;;;;;15.00;99.90;;;;;;10519654;28;20135;-25
2023/03/23 00:07:45;;;;;;;6.25;2.10;;;15.10;99.90;;;;;;10502293;28;19971;-24
2023/03/23 00:12:49;;;;;;;4.60;2.17;;;14.90;99.90;;;;;;10489046;28;20132;-24
2023/03/23 00:17:52;;;;;;;3.17;1.35;;;14.80;99.90;;;;;;10480455;28;20105;-24
2023/03/23 00:22:59;;;;;;;6.30;1.60;;;14.40;99.90;;;;;;10493046;28;20052;-23
2023/03/23 00:28:02;;;;;;;2.83;1.50;;;15.60;99.90;;;;;;10519847;28;20499;-25
2023/03/23 00:33:06;;;;;;;6.82;1.65;;;14.40;99.90;;;;;;10488785;28;20430;-24
2023/03/23 00:38:09;;;;;;;3.45;1.60;;;14.30;99.90;;;;;;10489200;28;20490;-25
2023/03/23 00:43:13;;;;;;;2.75;1.10;;;15.00;99.90;;;;;;10490344;28;20048;-22
2023/03/23 00:48:18;;;;;;;4.97;1.42;;;16.00;99.90;;;;;;10485326;28;20138;-25
2023/03/23 00:53:20;;;;;;;5.65;2.00;;;14.80;99.90;;;;;;10494121;28;20078;-24
2023/03/23 00:58:22;;;;;;;4.05;1.45;;;14.20;99.90;;;;;;10504512;28;20127;-23
2023/03/23 01:03:25;;;;;;;6.10;1.30;;;14.10;99.90;;;;;;10490862;28;20076;-24
2023/03/23 01:08:28;;;;;;;6.43;2.10;;;14.40;99.90;;;;;;10488389;28;20044;-24
2023/03/23 01:13:29;;;;;;;7.10;1.70;;;15.10;99.90;;;;;;10482825;28;20053;-25
2023/03/23 01:18:33;;;;;;;4.90;1.65;;;14.20;99.90;;;;;;10494936;28;20106;-24
2023/03/23 01:23:35;;;;;;;4.57;1.60;;;15.40;99.90;;;;;;10474295;28;20051;-23
2023/03/23 01:28:37;;;;;;;2.00;1.00;;;15.00;99.90;;;;;;10501147;28;20083;-26
2023/03/23 01:33:42;;;;;;;2.53;1.50;;;14.50;99.90;;;;;;10489523;28;20135;-24
2023/03/23 01:38:45;;;;;;;4.28;1.75;;;15.00;99.90;;;;;;10493462;28;20070;-25
2023/03/23 01:44:01;;;;;;;3.85;1.25;;;15.20;99.90;;;;;;10497797;28;20060;-23
2023/03/23 01:49:10;;;;;;;1.20;0.90;;;15.30;99.90;;;;;;10507371;28;20048;-24
2023/03/23 01:54:18;;;;;;;4.57;1.63;;;15.50;99.90;;;;;;10492444;28;20040;-24
2023/03/23 01:59:21;;;;;;;2.08;1.10;;;14.40;99.90;;;;;;10482915;28;20520;-24
2023/03/23 02:04:26;;;;;;;5.50;1.67;;;14.70;99.90;;;;;;10472909;28;20163;-23
2023/03/23 02:09:29;;;;;;;2.40;1.48;;;13.90;99.90;;;;;;10491095;28;20093;-23
2023/03/23 02:14:31;;;;;;;2.83;1.20;;;14.00;99.90;;;;;;10482076;28;20091;-23
2023/03/23 02:20:05;;;;;;;3.05;1.33;;;14.70;99.90;;;;;;10489544;28;20495;-23
2023/03/23 02:25:29;;;;;;;3.33;1.58;;;14.70;99.90;;;;;;10487954;28;20052;-24
2023/03/23 02:30:48;;;;;;;3.45;1.45;;;13.70;99.90;;;;;;10484642;28;20048;-23
2023/03/23 02:35:55;;;;;;;6.13;1.60;;;14.90;99.90;;;;;;10489077;28;20071;-24
2023/03/23 02:41:00;;;;;;;5.32;2.00;;;14.40;99.90;;;;;;10484856;28;20048;-23
2023/03/23 02:46:06;;;;;;;10.80;1.50;;;13.50;99.90;;;;;;10479101;28;20538;-23
2023/03/23 02:51:11;;;;;;;5.13;1.10;;;13.80;99.90;;;;;;10485490;28;20041;-24
2023/03/23 02:56:14;;;;;;;3.92;1.30;;;13.90;99.90;;;;;;10483747;28;20469;-24
2023/03/23 03:01:51;;;;;;;4.43;1.38;;;13.70;99.90;;;;;;10492575;28;20052;-24
2023/03/23 03:07:19;;;;;;;3.83;1.30;;;13.10;99.90;;;;;;10485886;28;20518;-23
2023/03/23 03:12:29;;;;;;;5.55;1.23;;;13.20;99.90;;;;;;10494876;28;20164;-25
2023/03/23 03:17:32;;;;;;;8.90;1.85;;;13.70;99.90;;;;;;10510764;28;20135;-24
2023/03/23 03:22:37;;;;;;;4.78;1.40;;;12.90;99.90;;;;;;10499604;28;20056;-25
2023/03/23 03:27:41;;;;;;;7.13;1.27;;;13.40;99.90;;;;;;10495590;28;20044;-25
2023/03/23 03:32:48;;;;;;;5.63;1.77;;;14.20;99.90;;;;;;10505505;28;20400;-25
2023/03/23 03:37:52;;;;;;;5.20;1.50;;;12.90;99.90;;;;;;10492336;28;20149;-25
2023/03/23 03:42:54;;;;;;;5.63;1.33;;;12.50;99.90;;;;;;10506442;28;20048;-25
2023/03/23 03:47:56;;;;;;;4.73;1.43;;;13.60;99.90;;;;;;10490207;28;20132;-25
2023/03/23 03:52:59;;;;;;;12.52;1.88;;;13.60;99.90;;;;;;10500622;28;20075;-25
2023/03/23 03:58:02;;;;;;;9.60;1.90;;;12.40;99.90;;;;;;10506973;28;20151;-25
2023/03/23 04:03:04;;;;;;;;;;;13.20;99.90;;;;;;10496231;28;20044;-25
2023/03/23 04:08:07;;;;;;;9.30;2.10;;;12.50;99.90;;;;;;10494601;28;19935;-26
2023/03/23 04:13:09;;;;;;;10.55;1.70;;;13.00;99.90;;;;;;10509460;28;20095;-24
2023/03/23 04:18:11;;;;;;;18.13;3.40;;;13.30;99.90;;;;;;10485196;28;20063;-25
2023/03/23 04:23:19;;;;;;;23.00;2.53;;;12.50;99.90;;;;;;10488544;28;20052;-25
2023/03/23 04:28:23;;;;;;;10.70;2.03;;;12.50;99.90;;;;;;10483743;28;20037;-24
2023/03/23 04:33:27;;;;;;;13.07;2.95;;;13.10;99.90;;;;;;10497406;28;20474;-24
2023/03/23 04:38:32;;;;;;;22.17;2.95;;;12.60;99.90;;;;;;10510388;28;20052;-24
2023/03/23 04:43:41;;;;;;;12.90;2.60;;;12.50;99.90;;;;;;10489508;28;20073;-24
2023/03/23 04:48:43;;;;;;;12.70;2.80;;;12.20;99.90;;;;;;10494221;28;20122;-24
2023/03/23 04:53:46;;;;;;;16.77;2.78;;;12.50;99.90;;;;;;10481199;28;20044;-25
2023/03/23 04:58:47;;;;;;;25.05;3.08;;;12.50;99.90;;;;;;10472339;28;20138;-24
2023/03/23 05:03:49;;;;;;;13.00;2.50;;;12.10;99.90;;;;;;10471364;28;20139;-24
2023/03/23 05:08:53;;;;;;;18.88;2.97;;;12.40;99.90;;;;;;10485036;28;20575;-27
2023/03/23 05:13:55;;;;;;;25.52;3.97;;;11.70;99.90;;;;;;10499861;28;20068;-25
2023/03/23 05:18:58;;;;;;;17.93;3.33;;;12.10;99.90;;;;;;10501903;28;20069;-23
2023/03/23 05:24:01;;;;;;;20.60;3.42;;;12.90;99.90;;;;;;10493633;28;20098;-24
2023/03/23 05:29:03;;;;;;;18.83;2.97;;;11.70;99.90;;;;;;10489988;28;20413;-23
2023/03/23 05:34:05;;;;;;;22.03;3.43;;;12.60;99.90;;;;;;10488790;28;20076;-25
2023/03/23 05:39:09;;;;;;;17.17;3.17;;;12.50;99.90;;;;;;10487027;28;20072;-24
2023/03/23 05:44:13;;;;;;;26.00;4.05;;;13.20;99.90;;;;;;10488797;28;20051;-26
2023/03/23 05:49:15;;;;;;;23.35;3.70;;;12.40;99.90;;;;;;10489276;28;20051;-24
2023/03/23 05:54:19;;;;;;;23.38;3.20;;;11.70;99.90;;;;;;10480144;28;20040;-22
2023/03/23 05:59:21;;;;;;;22.90;3.13;;;12.00;99.90;;;;;;10505142;28;20087;-23
2023/03/23 06:04:24;;;;;;;20.43;3.73;;;12.60;99.90;;;;;;10489792;28;20055;-25
2023/03/23 06:09:27;;;;;;;24.33;3.38;;;12.00;99.90;;;;;;10489309;28;20072;-25
2023/03/23 06:14:29;;;;;;;28.33;3.70;;;11.90;99.90;;;;;;10497123;28;20079;-25
2023/03/23 06:19:31;;;;;;;25.58;4.82;;;12.40;99.90;;;;;;10501790;28;20069;-25
2023/03/23 06:24:35;;;;;;;25.63;3.63;;;11.80;99.90;;;;;;10493138;28;20068;-24
2023/03/23 06:29:38;;;;;;;23.90;3.83;;;12.30;99.90;;;;;;10474881;28;20048;-25
2023/03/23 06:34:40;;;;;;;;;;;11.70;99.90;;;;;;10483906;28;20564;-24
2023/03/23 06:39:43;;;;;;;23.52;3.25;;;12.10;99.90;;;;;;10492352;28;19932;-26
2023/03/23 06:44:46;;;;;;;20.42;3.28;;;11.80;99.90;;;;;;10485142;28;20144;-24
2023/03/23 06:49:47;;;;;;;21.45;4.13;;;11.90;99.90;;;;;;10492966;28;20076;-24
2023/03/23 06:54:51;;;;;;;13.52;2.35;;;11.70;99.90;;;;;;10515722;28;20126;-24
2023/03/23 06:59:53;;;;;;;15.02;2.30;;;12.50;99.90;;;;;;10503158;28;20143;-24
2023/03/23 07:15:13;;;;;;;13.98;2.42;;;12.80;99.90;;;;;;10544769;27;20117;-23
2023/03/23 07:20:15;;;;;;;21.73;2.42;;;13.20;99.90;;;;;;10571224;28;20051;-24
2023/03/23 07:25:18;;;;;;;13.57;2.45;;;12.50;99.90;;;;;;10578057;28;20088;-24
2023/03/23 07:30:22;;;;;;;17.05;2.20;;;12.60;99.90;;;;;;10564196;28;20035;-25
2023/03/23 07:35:24;;;;;;;12.35;2.05;;;13.20;99.90;;;;;;10567867;28;20083;-26
2023/03/23 07:40:26;;;;;;;10.80;1.58;;;12.10;99.90;;;;;;10568742;28;20157;-27
2023/03/23 07:45:31;;;;;;;16.08;2.72;;;13.20;99.90;;;;;;10565540;28;20035;-25
2023/03/23 07:50:35;;;;;;;18.13;3.22;;;12.50;99.90;;;;;;10558176;28;20052;-24
2023/03/23 07:55:37;;;;;;;11.55;2.53;;;12.70;99.90;;;;;;10555862;28;20059;-24
2023/03/23 08:00:40;;;;;;;17.93;2.40;;;12.80;99.90;;;;;;10569785;28;20048;-24
2023/03/23 08:05:43;;;;;;;7.82;2.13;;;12.50;99.90;;;;;;10564659;27;20082;-26
2023/03/23 08:10:45;;;;;;;15.55;3.35;;;13.00;99.90;;;;;;10553091;28;20067;-24
2023/03/23 08:15:49;;;;;;;21.70;3.20;;;12.60;99.90;;;;;;10558245;28;20056;-22
2023/03/23 08:20:53;;;;;;;15.70;2.83;;;13.00;99.90;;;;;;10554616;28;20085;-24
2023/03/23 08:25:55;;;;;;;14.77;2.08;;;13.40;99.90;;;;;;10540317;28;20076;-24
2023/03/23 08:30:59;;;;;;;19.08;2.65;;;13.80;99.90;;;;;;10537086;28;20159;-24
2023/03/23 08:36:02;;;;;;;25.75;3.17;;;13.40;99.90;;;;;;10526373;28;20052;-27
2023/03/23 08:41:07;;;;;;;16.13;2.50;;;13.10;99.90;;;;;;10539183;28;20044;-23
2023/03/23 08:46:11;;;;;;;23.33;4.30;;;13.20;99.90;;;;;;10531047;28;20044;-24
2023/03/23 08:51:12;;;;;;;24.33;2.72;;;12.80;99.90;;;;;;10528535;28;20525;-24
2023/03/23 08:56:14;;;;;;;18.67;3.05;;;12.80;99.90;;;;;;10532038;28;20637;-24
2023/03/23 09:01:18;;;;;;;20.20;2.55;;;13.00;99.90;;;;;;10526973;28;20058;-24
2023/03/23 09:06:20;;;;;;;19.25;2.72;;;13.00;99.90;;;;;;10527141;28;20040;-25
2023/03/23 09:11:21;;;;;;;24.87;4.27;;;13.30;99.90;;;;;;10531209;28;20056;-25
2023/03/23 09:16:25;;;;;;;28.35;3.30;;;12.80;99.90;;;;;;10532105;28;20071;-24
2023/03/23 09:21:27;;;;;;;19.08;4.07;;;13.50;99.90;;;;;;10533012;28;20090;-24
2023/03/23 09:26:29;;;;;;;;;;;13.60;99.90;;;;;;10541950;28;20654;-23
2023/03/23 09:31:33;;;;;;;24.17;4.10;;;12.90;99.90;;;;;;10546943;28;19927;-24
2023/03/23 09:36:35;;;;;;;22.65;3.10;;;13.40;99.90;;;;;;10528986;28;20101;-23
2023/03/23 09:42:15;;;;;;;12.40;2.55;;;14.60;99.90;;;;;;10537508;28;20090;-26
2023/03/23 09:47:25;;;;;;;19.05;4.10;;;14.10;99.90;;;;;;10464390;28;20056;-24
2023/03/23 09:52:38;;;;;;;26.92;3.78;;;13.80;99.90;;;;;;10519319;28;20083;-25
2023/03/23 09:57:43;;;;;;;;;;;13.00;99.90;;;;;;10532465;28;20810;-25
2023/03/23 10:02:53;;;;;;;29.30;4.28;;;13.50;99.90;;;;;;10512256;28;20007;-25
2023/03/23 10:07:55;;;;;;;19.60;2.65;;;13.80;99.90;;;;;;10518804;28;20048;-24
2023/03/23 10:13:02;;;;;;;20.70;3.30;;;13.90;99.90;;;;;;10525847;28;20052;-25
2023/03/23 10:18:13;;;;;;;23.75;3.85;;;14.30;99.90;;;;;;10536933;28;20134;-24
2023/03/23 10:23:53;;;;;;;29.17;3.42;;;13.60;99.90;;;;;;10532309;28;20054;-25
2023/03/23 10:28:58;;;;;;;31.42;4.38;;;13.60;99.90;;;;;;10535818;28;20456;-25
2023/03/23 10:34:10;;;;;;;13.25;3.20;;;13.50;99.90;;;;;;10516158;28;20485;-23
2023/03/23 10:39:14;;;;;;;21.88;4.68;;;14.00;99.90;;;;;;10522184;28;20480;-24
2023/03/23 10:44:18;;;;;;;27.55;4.72;;;13.50;99.90;;;;;;10529049;28;20053;-25
2023/03/23 10:49:25;;;;;;;23.38;3.20;;;14.40;99.90;;;;;;10530146;28;20058;-25
2023/03/23 10:54:34;;;;;;;34.05;4.80;;;14.40;99.90;;;;;;10518636;28;20052;-24
2023/03/23 10:59:41;;;;;;;21.77;4.25;;;14.30;99.90;;;;;;10511265;28;20147;-24
2023/03/23 11:04:54;;;;;;;15.90;3.65;;;14.60;99.90;;;;;;10516033;28;20044;-23
2023/03/23 11:09:58;;;;;;;17.63;4.03;;;14.80;99.90;;;;;;10524426;28;20066;-24
2023/03/23 11:15:16;;;;;;;19.88;2.85;;;14.50;99.90;;;;;;10522527;28;20067;-27
2023/03/23 11:20:21;;;;;;;14.68;2.45;;;15.00;99.90;;;;;;10539500;28;20044;-25
2023/03/23 11:25:23;;;;;;;12.45;1.95;;;14.90;99.90;;;;;;10527054;28;20394;-24
2023/03/23 11:30:28;;;;;;;16.98;3.65;;;14.80;99.90;;;;;;10542003;28;20144;-25
2023/03/23 11:35:31;;;;;;;11.27;2.90;;;14.70;99.90;;;;;;10524777;28;20166;-25
2023/03/23 11:40:35;;;;;;;21.58;3.40;;;15.20;99.90;;;;;;10527980;28;20044;-25
2023/03/23 11:45:40;;;;;;;19.45;3.30;;;14.20;99.90;;;;;;10533891;28;20090;-23
2023/03/23 11:50:51;;;;;;;15.40;2.20;;;14.40;99.90;;;;;;10538561;28;20048;-25
2023/03/23 11:55:58;;;;;;;15.38;2.45;;;14.90;99.90;;;;;;10524867;28;20047;-24
2023/03/23 12:01:06;;;;;;;18.52;2.63;;;15.30;99.90;;;;;;10523449;28;20491;-24
2023/03/23 12:06:12;;;;;;;12.70;2.28;;;14.30;99.90;;;;;;10535119;28;20058;-24
2023/03/23 12:11:21;;;;;;;19.67;3.28;;;14.70;99.90;;;;;;10529619;28;20454;-24
2023/03/23 12:16:31;;;;;;;21.25;3.47;;;14.80;99.90;;;;;;10531345;28;20036;-27
2023/03/23 12:21:45;;;;;;;21.15;2.53;;;14.90;99.90;;;;;;10543496;28;20132;-26
2023/03/23 12:26:52;;;;;;;18.92;3.35;;;15.20;99.90;;;;;;10539791;28;20131;-24
2023/03/23 12:32:20;;;;;;;20.17;3.15;;;15.00;99.90;;;;;;10536680;28;20048;-24
2023/03/23 12:37:35;;;;;;;15.75;2.63;;;14.50;99.90;;;;;;10531030;28;20198;-24
2023/03/23 12:42:45;;;;;;;14.90;2.35;;;14.70;99.90;;;;;;10523240;28;20090;-24
2023/03/23 12:47:51;;;;;;;12.93;2.72;;;15.10;99.90;;;;;;10526879;28;20040;-24
2023/03/23 12:52:59;;;;;;;12.50;2.05;;;14.90;99.90;;;;;;10524045;28;20337;-24
2023/03/23 12:58:06;;;;;;;15.48;3.33;;;15.00;99.90;;;;;;10520866;28;20048;-26
2023/03/23 13:03:16;;;;;;;16.95;3.40;;;15.40;99.90;;;;;;10521707;28;20054;-24
2023/03/23 13:08:24;;;;;;;15.77;3.15;;;15.90;99.40;;;;;;10528615;28;20052;-24
2023/03/23 13:13:27;;;;;;;15.90;3.10;;;15.40;99.90;;;;;;10527865;28;20049;-25
2023/03/23 13:18:41;;;;;;;21.20;4.35;;;15.70;95.40;;;;;;10523570;28;20040;-24
2023/03/23 13:23:46;;;;;;;22.67;3.97;;;15.10;99.90;;;;;;10534215;28;20055;-24
2023/03/23 13:29:03;;;;;;;13.68;2.28;;;15.30;99.90;;;;;;10539827;28;20047;-23
2023/03/23 13:34:07;;;;;;;25.13;4.45;;;16.00;99.90;;;;;;10516252;28;20184;-25
2023/03/23 13:39:20;;;;;;;26.38;4.25;;;15.80;99.90;;;;;;10525930;28;20159;-24
2023/03/23 13:44:26;;;;;;;19.10;3.00;;;16.20;98.00;;;;;;10519172;28;20075;-24
2023/03/23 13:49:28;;;;;;;18.40;3.10;;;16.70;99.80;;;;;;10533482;28;20072;-24
2023/03/23 13:54:42;;;;;;;21.70;3.50;;;16.70;99.90;;;;;;10526128;28;20129;-24
2023/03/23 13:59:49;;;;;;;17.15;2.97;;;16.80;94.20;;;;;;10515172;28;20055;-24
2023/03/23 14:04:52;;;;;;;14.95;2.80;;;17.10;97.80;;;;;;10526843;28;20044;-23
2023/03/23 14:09:55;;;;;;;18.25;2.83;;;16.80;99.90;;;;;;10509856;28;20477;-24
2023/03/23 14:15:04;;;;;;;28.27;4.20;;;16.70;99.90;;;;;;10529179;28;20059;-23
2023/03/23 14:20:07;;;;;;;24.00;3.72;;;16.80;98.30;;;;;;10532846;28;20079;-25
2023/03/23 14:25:15;;;;;;;23.98;4.30;;;16.70;99.90;;;;;;10520080;28;20068;-25
2023/03/23 14:30:19;;;;;;;20.67;4.75;;;16.40;94.60;;;;;;10526953;28;20113;-24
2023/03/23 14:35:26;;;;;;;12.50;3.35;;;17.50;91.20;;;;;;10521525;28;20154;-25
2023/03/23 14:40:30;;;;;;;18.58;3.67;;;18.10;92.70;;;;;;10537220;28;20532;-24
2023/03/23 14:45:33;;;;;;;18.95;3.13;;;18.50;85.40;;;;;;10526898;28;20135;-25
2023/03/23 14:50:40;;;;;;;23.58;3.83;;;17.80;90.50;;;;;;10536814;28;20055;-24
2023/03/23 14:55:47;;;;;;;19.45;3.80;;;18.00;84.20;;;;;;10536816;28;20048;-24
2023/03/23 15:00:55;;;;;;;26.02;4.30;;;18.60;82.70;;;;;;10556019;28;20063;-24
2023/03/23 15:06:00;;;;;;;23.52;4.22;;;17.80;92.10;;;;;;10532626;28;20550;-25
2023/03/23 15:11:09;;;;;;;25.08;4.47;;;17.90;89.30;;;;;;10525320;28;20094;-24
2023/03/23 15:16:15;;;;;;;20.02;4.28;;;17.70;90.30;;;;;;10545367;28;20148;-25
2023/03/23 15:21:25;;;;;;;20.70;3.25;;;18.20;91.60;;;;;;10545313;28;20472;-24
2023/03/23 15:26:34;;;;;;;22.75;4.13;;;18.70;86.70;;;;;;10532768;28;20044;-25
2023/03/23 15:31:41;;;;;;;15.35;3.35;;;19.30;74.80;;;;;;10531794;28;20083;-27
2023/03/23 15:36:43;;;;;;;17.52;3.42;;;19.40;80.20;;;;;;10533334;28;20051;-25
2023/03/23 15:41:51;;;;;;;20.25;4.18;;;18.90;75.10;;;;;;10524085;28;20648;-23
2023/03/23 15:47:02;;;;;;;16.80;3.25;;;19.40;77.30;;;;;;10514992;28;20154;-24
2023/03/23 15:52:04;;;;;;;17.05;3.28;;;19.10;79.90;;;;;;10539374;28;20048;-25
2023/03/23 15:57:10;;;;;;;;;;;18.80;91.60;;;;;;10527967;28;20430;-24
2023/03/23 16:02:21;;;;;;;24.15;4.05;;;18.10;98.10;;;;;;10515748;28;20011;-24
2023/03/23 16:07:24;;;;;;;20.00;3.15;;;17.50;99.90;;;;;;10546425;28;20052;-25
2023/03/23 16:12:27;;;;;;;23.17;3.75;;;17.40;91.00;;;;;;10535144;28;20081;-28
2023/03/23 16:17:29;;;;;;;25.17;3.90;;;16.80;99.90;;;;;;10528424;28;20048;-25
2023/03/23 16:22:31;;;;;;;23.27;4.13;;;17.10;95.80;;;;;;10524458;28;20044;-26
2023/03/23 16:27:34;;;;;;;16.73;3.87;;;16.20;94.60;;;;;;10515919;28;20488;-24
2023/03/23 16:32:36;;;;;;;28.00;5.03;;;16.20;99.90;;;;;;10518283;28;20055;-24
2023/03/23 16:37:39;;;;;;;18.73;3.40;;;16.20;98.90;;;;;;10527761;28;20075;-28
2023/03/23 16:42:42;;;;;;;17.10;3.58;;;16.10;99.90;;;;;;10530176;28;20079;-25
2023/03/23 16:47:44;;;;;;;24.80;4.60;;;16.90;99.90;;;;;;10525720;28;20044;-23
2023/03/23 16:52:47;;;;;;;23.88;5.32;;;16.70;95.50;;;;;;10528594;28;20154;-25
2023/03/23 16:57:50;;;;;;;;;;;16.20;94.00;;;;;;10540073;28;20052;-24
2023/03/23 17:02:52;;;;;;;;;;;16.70;99.90;;;;;;10535980;28;19984;-26
2023/03/23 17:07:55;;;;;;;23.00;3.30;;;16.70;98.50;;;;;;10535428;28;20376;-27
2023/03/23 17:12:59;;;;;;;25.80;3.78;;;16.60;95.50;;;;;;10522443;28;20052;-27
2023/03/23 17:18:01;;;;;;;19.58;3.58;;;17.40;95.60;;;;;;10523513;28;20044;-26
2023/03/23 17:23:04;;;;;;;14.00;3.20;;;16.00;99.90;;;;;;10530446;28;20047;-27
2023/03/23 17:28:07;;;;;;;11.18;2.75;;;18.20;99.90;;;;;;10523730;28;20044;-24
2023/03/23 17:33:10;;;;;;;13.85;2.50;;;17.50;99.90;;;;;;10536967;28;20043;-25
2023/03/23 17:38:12;;;;;;;;;;;16.80;99.90;;;;;;10526343;28;20060;-24
2023/03/23 17:43:15;;;;;;;14.68;2.80;;;18.80;99.90;;;;;;10525941;28;19924;-25
2023/03/23 17:48:18;;;;;;;10.02;2.38;;;19.90;97.40;;;;;;10533115;28;20131;-24
2023/03/23 17:53:20;;;;;;;9.52;2.85;;;20.30;94.90;;;;;;10528795;28;20110;-23
2023/03/23 17:58:25;;;;;;;;;;;21.00;91.70;;;;;;10529842;28;20538;-23
2023/03/23 18:03:27;;;;;;;14.93;2.13;;;21.20;91.20;;;;;;10531694;28;19924;-23
2023/03/23 18:08:30;;;;;;;10.57;2.85;;;21.10;91.20;;;;;;10525016;28;20052;-25
2023/03/23 18:13:42;;;;;;;10.50;2.92;;;19.60;97.00;;;;;;10521542;28;20052;-25
2023/03/23 18:18:45;;;;;;;14.30;2.83;;;19.80;96.80;;;;;;10528230;28;20140;-23
2023/03/23 18:23:47;;;;;;;14.77;3.00;;;18.20;99.90;;;;;;10525111;28;20044;-25
2023/03/23 18:28:50;;;;;;;11.10;2.58;;;17.70;99.90;;;;;;10521564;28;20476;-23
2023/03/23 18:33:54;;;;;;;11.20;2.88;;;17.30;99.90;;;;;;10522301;28;20580;-25
2023/03/23 18:38:56;;;;;;;13.32;2.60;;;18.30;99.90;;;;;;10529985;28;20424;-25
2023/03/23 18:44:00;;;;;;;10.88;3.20;;;16.80;99.90;;;;;;10525769;27;20456;-23
2023/03/23 18:49:01;;;;;;;12.82;2.70;;;18.20;99.90;;;;;;10538034;28;20105;-26
2023/03/23 18:54:05;;;;;;;22.40;4.55;;;19.20;99.90;;;;;;10535191;28;20148;-25
2023/03/23 18:59:09;;;;;;;12.57;1.90;;;20.10;98.20;;;;;;10538696;28;20079;-24
2023/03/23 19:04:12;;;;;;;10.25;2.50;;;19.80;99.40;;;;;;10534093;28;20155;-28
2023/03/23 19:09:15;;;;;;;15.52;2.33;;;20.20;97.40;;;;;;10527549;28;20052;-24
2023/03/23 19:14:19;;;;;;;15.60;3.00;;;20.30;96.60;;;;;;10529790;28;20060;-24
2023/03/23 19:19:21;;;;;;;15.00;2.83;;;20.30;96.40;;;;;;10522889;28;20040;-23
2023/03/23 19:24:25;;;;;;;7.70;2.03;;;20.10;97.30;;;;;;10538503;28;20050;-25
2023/03/23 19:29:28;;;;;;;11.57;2.20;;;20.60;95.40;;;;;;10529008;28;20578;-24
2023/03/23 19:34:31;;;;;;;7.47;1.98;;;20.50;95.40;;;;;;10536189;28;20070;-25
2023/03/23 19:39:33;;;;;;;8.43;2.08;;;20.40;95.40;;;;;;10531097;28;20606;-26
2023/03/23 19:44:36;;;;;;;3.92;1.40;;;20.00;96.80;;;;;;10529135;28;20785;-28
2023/03/23 19:49:38;;;;;;;7.28;2.35;;;19.90;97.80;;;;;;10530798;28;20123;-28
2023/03/23 19:54:40;;;;;;;7.72;1.88;;;20.30;96.10;;;;;;10530562;28;20476;-27
2023/03/23 19:59:43;;;;;;;8.82;2.70;;;20.40;95.70;;;;;;10539411;28;20138;-24
2023/03/23 20:04:45;;;;;;;16.35;3.10;;;18.10;99.90;;;;;;10514118;28;20067;-25
2023/03/23 20:09:47;;;;;;;16.88;3.75;;;15.70;99.90;;;;;;10521891;28;20040;-25
2023/03/23 20:14:51;;;;;;;5.80;2.30;;;16.70;99.90;;;;;;10528360;28;20086;-27
2023/03/23 20:19:52;;;;;;;10.70;2.38;;;18.70;99.90;;;;;;10523145;28;20479;-27
2023/03/23 20:24:54;;;;;;;9.73;1.80;;;19.30;99.90;;;;;;10541857;28;20087;-25
2023/03/23 20:29:58;;;;;;;10.43;2.83;;;18.20;99.90;;;;;;10517153;28;20048;-25
2023/03/23 20:35:05;;;;;;;12.57;2.10;;;18.90;99.90;;;;;;10536502;28;20047;-26
2023/03/23 20:40:10;;;;;;;10.38;3.13;;;19.20;99.90;;;;;;10522918;28;20040;-24
2023/03/23 20:45:14;;;;;;;10.65;2.38;;;20.10;97.00;;;;;;10528455;28;20302;-25
2023/03/23 20:50:17;;;;;;;11.80;3.85;;;20.40;95.30;;;;;;10555011;28;20488;-26
2023/03/23 20:55:19;;;;;;;5.85;2.40;;;19.70;97.20;;;;;;10540845;28;20127;-26
2023/03/23 21:00:22;;;;;;;20.40;3.22;;;20.00;95.70;;;;;;10530233;28;20104;-26
2023/03/23 21:05:24;;;;;;;10.20;3.35;;;19.90;96.10;;;;;;10535426;28;20122;-25
2023/03/23 21:10:27;;;;;;;12.52;3.67;;;20.10;96.10;;;;;;10547099;28;20063;-27
2023/03/23 21:15:31;;;;;;;10.30;3.45;;;19.40;98.50;;;;;;10526086;28;20043;-25
2023/03/23 21:20:33;;;;;;;9.55;3.10;;;19.70;97.40;;;;;;10533108;28;20052;-24
2023/03/23 21:25:36;;;;;;;;;;;19.10;99.00;;;;;;10529350;28;20047;-24
2023/03/23 21:30:44;;;;;;;15.93;3.08;;;19.20;99.50;;;;;;10521335;28;20310;-25
2023/03/23 21:35:46;;;;;;;8.65;2.58;;;19.10;99.40;;;;;;10534604;28;20082;-24
2023/03/23 21:40:48;;;;;;;12.82;3.20;;;18.90;99.00;;;;;;10537367;28;20528;-26
2023/03/23 21:45:54;;;;;;;14.65;3.17;;;19.50;97.60;;;;;;10538627;28;20470;-25
2023/03/23 21:50:56;;;;;;;6.88;2.75;;;18.70;98.70;;;;;;10533181;28;20060;-24
2023/03/23 21:55:59;;;;;;;8.40;2.75;;;18.90;99.90;;;;;;10530125;28;20090;-25
2023/03/23 22:01:04;;;;;;;;;;;19.10;96.90;;;;;;10540170;28;20474;-23
2023/03/23 22:06:09;;;;;;;6.13;2.83;;;18.90;99.30;;;;;;10542841;28;19928;-26
2023/03/23 22:11:14;;;;;;;12.20;2.95;;;18.10;99.90;;;;;;10540434;28;20087;-26
2023/03/23 22:16:18;;;;;;;9.95;3.20;;;18.40;99.90;;;;;;10528733;28;20052;-24
2023/03/23 22:21:21;;;;;;;10.80;2.55;;;17.80;99.60;;;;;;10526394;28;20072;-25
2023/03/23 22:26:25;;;;;;;9.25;2.88;;;18.50;99.90;;;;;;10517096;28;20492;-25
2023/03/23 22:31:33;;;;;;;11.02;3.35;;;18.60;99.90;;;;;;10534286;28;20048;-26
2023/03/23 22:36:35;;;;;;;20.85;3.25;;;18.80;98.90;;;;;;10530723;28;20047;-25
2023/03/23 22:41:39;;;;;;;12.45;4.00;;;18.80;99.20;;;;;;10525594;28;20063;-25
2023/03/23 22:46:42;;;;;;;9.60;2.97;;;18.70;98.90;;;;;;10492914;28;20429;-24
2023/03/23 22:51:45;;;;;;;8.20;2.70;;;19.10;97.00;;;;;;10520877;28;20097;-25
2023/03/23 22:56:47;;;;;;;7.68;2.55;;;19.00;98.20;;;;;;10524334;28;20056;-25
2023/03/23 23:01:50;;;;;;;6.50;2.40;;;19.40;96.00;;;;;;10534083;28;20045;-25
2023/03/23 23:06:52;;;;;;;8.68;2.05;;;18.80;95.90;;;;;;10527563;28;20044;-25
2023/03/23 23:11:54;;;;;;;3.65;1.60;;;18.40;98.90;;;;;;10511282;28;20451;-25
2023/03/23 23:16:58;;;;;;;4.13;2.00;;;18.50;97.90;;;;;;10535978;28;20048;-25
2023/03/23 23:22:00;;;;;;;10.43;2.17;;;18.00;99.90;;;;;;10536659;28;20503;-26
2023/03/23 23:27:02;;;;;;;4.03;1.85;;;17.70;99.90;;;;;;10525848;28;20053;-25
2023/03/23 23:32:05;;;;;;;;;;;18.00;99.90;;;;;;10528397;28;20119;-27
2023/03/23 23:37:07;;;;;;;4.13;1.90;;;18.30;99.90;;;;;;10520208;28;19927;-24
2023/03/23 23:42:09;;;;;;;6.78;2.17;;;18.20;99.90;;;;;;10523258;28;20135;-24
2023/03/23 23:47:13;;;;;;;7.57;1.90;;;17.60;99.90;;;;;;10540473;28;20504;-26
2023/03/23 23:52:15;;;;;;;9.07;2.63;;;18.00;99.90;;;;;;10530969;28;20044;-25
2023/03/23 23:57:17;;;;;;;3.95;2.22;;;17.50;99.90;;;;;;10533042;28;20048;-24
